sensor_id;sensor_type;location;lat;lon;timestamp;P1;durP1;ratioP1;P2;durP2;ratioP2
20531;SDS011;10424;52.102;8.084;2022-12-20T00:00:05;11.65;;;7.38;;
20531;SDS011;10424;52.102;8.084;2022-12-20T00:02:33;12.45;;;7.10;;
20531;SDS011;10424;52.102;8.084;2022-12-20T00:05:00;13.77;;;8.13;;
20531;SDS011;10424;52.102;8.084;2022-12-20T00:07:27;12.38;;;7.40;;
20531;SDS011;10424;52.102;8.084;2022-12-20T00:09:55;14.90;;;8.10;;
20531;SDS011;10424;52.102;8.084;2022-12-20T00:12:22;13.02;;;7.15;;
20531;SDS011;10424;52.102;8.084;2022-12-20T00:14:49;14.02;;;7.78;;
20531;SDS011;10424;52.102;8.084;2022-12-20T00:17:18;13.32;;;7.05;;
20531;SDS011;10424;52.102;8.084;2022-12-20T00:19:45;12.35;;;7.30;;
20531;SDS011;10424;52.102;8.084;2022-12-20T00:22:12;14.68;;;8.52;;
20531;SDS011;10424;52.102;8.084;2022-12-20T00:24:40;11.38;;;7.30;;
20531;SDS011;10424;52.102;8.084;2022-12-20T00:27:07;10.85;;;6.90;;
20531;SDS011;10424;52.102;8.084;2022-12-20T00:29:34;12.88;;;7.20;;
20531;SDS011;10424;52.102;8.084;2022-12-20T00:32:01;13.63;;;7.30;;
20531;SDS011;10424;52.102;8.084;2022-12-20T00:34:30;11.18;;;7.13;;
20531;SDS011;10424;52.102;8.084;2022-12-20T00:36:57;10.73;;;7.32;;
20531;SDS011;10424;52.102;8.084;2022-12-20T00:39:25;11.32;;;7.18;;
20531;SDS011;10424;52.102;8.084;2022-12-20T00:41:52;10.65;;;6.45;;
20531;SDS011;10424;52.102;8.084;2022-12-20T00:44:19;11.57;;;6.80;;
20531;SDS011;10424;52.102;8.084;2022-12-20T00:46:46;10.65;;;6.85;;
20531;SDS011;10424;52.102;8.084;2022-12-20T00:49:14;11.60;;;6.68;;
20531;SDS011;10424;52.102;8.084;2022-12-20T00:51:42;15.45;;;7.28;;
20531;SDS011;10424;52.102;8.084;2022-12-20T00:54:10;11.05;;;6.95;;
20531;SDS011;10424;52.102;8.084;2022-12-20T00:56:37;11.30;;;7.05;;
20531;SDS011;10424;52.102;8.084;2022-12-20T00:59:04;9.88;;;5.85;;
20531;SDS011;10424;52.102;8.084;2022-12-20T01:01:32;11.48;;;6.93;;
20531;SDS011;10424;52.102;8.084;2022-12-20T01:03:59;11.07;;;6.65;;
20531;SDS011;10424;52.102;8.084;2022-12-20T01:06:27;10.13;;;6.28;;
20531;SDS011;10424;52.102;8.084;2022-12-20T01:08:56;10.68;;;6.75;;
20531;SDS011;10424;52.102;8.084;2022-12-20T01:11:25;9.38;;;6.20;;
20531;SDS011;10424;52.102;8.084;2022-12-20T01:13:53;11.68;;;6.25;;
20531;SDS011;10424;52.102;8.084;2022-12-20T01:16:22;9.23;;;6.03;;
20531;SDS011;10424;52.102;8.084;2022-12-20T01:18:49;11.02;;;6.28;;
20531;SDS011;10424;52.102;8.084;2022-12-20T01:21:17;12.15;;;6.47;;
20531;SDS011;10424;52.102;8.084;2022-12-20T01:23:45;10.55;;;5.80;;
20531;SDS011;10424;52.102;8.084;2022-12-20T01:26:14;9.98;;;6.10;;
20531;SDS011;10424;52.102;8.084;2022-12-20T01:28:43;9.13;;;5.93;;
20531;SDS011;10424;52.102;8.084;2022-12-20T01:31:11;9.05;;;6.15;;
20531;SDS011;10424;52.102;8.084;2022-12-20T01:33:38;9.52;;;5.60;;
20531;SDS011;10424;52.102;8.084;2022-12-20T01:36:07;9.63;;;6.25;;
20531;SDS011;10424;52.102;8.084;2022-12-20T01:38:34;11.85;;;5.45;;
20531;SDS011;10424;52.102;8.084;2022-12-20T01:41:02;11.52;;;5.32;;
20531;SDS011;10424;52.102;8.084;2022-12-20T01:43:45;8.48;;;4.95;;
20531;SDS011;10424;52.102;8.084;2022-12-20T01:46:12;7.38;;;5.25;;
20531;SDS011;10424;52.102;8.084;2022-12-20T01:48:40;8.13;;;5.28;;
20531;SDS011;10424;52.102;8.084;2022-12-20T01:51:08;9.50;;;5.43;;
20531;SDS011;10424;52.102;8.084;2022-12-20T01:53:36;7.93;;;4.97;;
20531;SDS011;10424;52.102;8.084;2022-12-20T01:56:04;9.45;;;4.85;;
20531;SDS011;10424;52.102;8.084;2022-12-20T01:58:32;7.38;;;4.70;;
20531;SDS011;10424;52.102;8.084;2022-12-20T02:01:03;8.63;;;5.28;;
20531;SDS011;10424;52.102;8.084;2022-12-20T02:03:30;8.52;;;5.20;;
20531;SDS011;10424;52.102;8.084;2022-12-20T02:06:05;7.32;;;4.82;;
20531;SDS011;10424;52.102;8.084;2022-12-20T02:08:39;8.18;;;5.18;;
20531;SDS011;10424;52.102;8.084;2022-12-20T02:11:08;8.15;;;4.95;;
20531;SDS011;10424;52.102;8.084;2022-12-20T02:13:43;11.65;;;4.50;;
20531;SDS011;10424;52.102;8.084;2022-12-20T02:16:16;8.32;;;4.43;;
20531;SDS011;10424;52.102;8.084;2022-12-20T02:18:48;8.13;;;4.32;;
20531;SDS011;10424;52.102;8.084;2022-12-20T02:21:21;7.45;;;4.32;;
20531;SDS011;10424;52.102;8.084;2022-12-20T02:23:57;6.78;;;4.30;;
20531;SDS011;10424;52.102;8.084;2022-12-20T02:26:38;5.97;;;4.30;;
20531;SDS011;10424;52.102;8.084;2022-12-20T02:29:11;5.95;;;4.32;;
20531;SDS011;10424;52.102;8.084;2022-12-20T02:31:48;5.57;;;3.92;;
20531;SDS011;10424;52.102;8.084;2022-12-20T02:34:19;7.35;;;3.92;;
20531;SDS011;10424;52.102;8.084;2022-12-20T02:36:50;5.78;;;3.78;;
20531;SDS011;10424;52.102;8.084;2022-12-20T02:39:18;7.35;;;4.05;;
20531;SDS011;10424;52.102;8.084;2022-12-20T02:41:46;6.15;;;3.95;;
20531;SDS011;10424;52.102;8.084;2022-12-20T02:44:15;7.75;;;4.45;;
20531;SDS011;10424;52.102;8.084;2022-12-20T02:47:03;6.88;;;4.32;;
20531;SDS011;10424;52.102;8.084;2022-12-20T02:49:33;6.80;;;4.10;;
20531;SDS011;10424;52.102;8.084;2022-12-20T02:52:02;7.47;;;3.95;;
20531;SDS011;10424;52.102;8.084;2022-12-20T02:54:31;5.80;;;3.90;;
20531;SDS011;10424;52.102;8.084;2022-12-20T02:56:59;5.55;;;3.63;;
20531;SDS011;10424;52.102;8.084;2022-12-20T02:59:28;6.47;;;3.90;;
20531;SDS011;10424;52.102;8.084;2022-12-20T03:01:56;7.22;;;3.72;;
20531;SDS011;10424;52.102;8.084;2022-12-20T03:04:26;5.97;;;3.33;;
20531;SDS011;10424;52.102;8.084;2022-12-20T03:06:55;5.18;;;3.45;;
20531;SDS011;10424;52.102;8.084;2022-12-20T03:09:22;5.80;;;3.80;;
20531;SDS011;10424;52.102;8.084;2022-12-20T03:11:49;8.95;;;3.67;;
20531;SDS011;10424;52.102;8.084;2022-12-20T03:14:17;6.38;;;3.42;;
20531;SDS011;10424;52.102;8.084;2022-12-20T03:16:44;7.20;;;3.63;;
20531;SDS011;10424;52.102;8.084;2022-12-20T03:19:11;5.80;;;3.28;;
20531;SDS011;10424;52.102;8.084;2022-12-20T03:21:40;6.32;;;3.45;;
20531;SDS011;10424;52.102;8.084;2022-12-20T03:24:07;7.18;;;2.92;;
20531;SDS011;10424;52.102;8.084;2022-12-20T03:26:37;9.73;;;3.38;;
20531;SDS011;10424;52.102;8.084;2022-12-20T03:29:05;4.43;;;3.10;;
20531;SDS011;10424;52.102;8.084;2022-12-20T03:31:32;4.55;;;3.35;;
20531;SDS011;10424;52.102;8.084;2022-12-20T03:33:59;7.10;;;3.55;;
20531;SDS011;10424;52.102;8.084;2022-12-20T03:36:26;5.43;;;3.65;;
20531;SDS011;10424;52.102;8.084;2022-12-20T03:38:55;5.75;;;3.50;;
20531;SDS011;10424;52.102;8.084;2022-12-20T03:41:23;3.75;;;3.20;;
20531;SDS011;10424;52.102;8.084;2022-12-20T03:43:50;5.28;;;3.50;;
20531;SDS011;10424;52.102;8.084;2022-12-20T03:46:18;5.68;;;3.42;;
20531;SDS011;10424;52.102;8.084;2022-12-20T03:48:45;7.50;;;3.60;;
20531;SDS011;10424;52.102;8.084;2022-12-20T03:51:12;5.78;;;3.40;;
20531;SDS011;10424;52.102;8.084;2022-12-20T03:53:39;5.90;;;3.80;;
20531;SDS011;10424;52.102;8.084;2022-12-20T03:56:08;6.75;;;3.45;;
20531;SDS011;10424;52.102;8.084;2022-12-20T03:58:35;4.22;;;2.85;;
20531;SDS011;10424;52.102;8.084;2022-12-20T04:01:14;4.63;;;3.40;;
20531;SDS011;10424;52.102;8.084;2022-12-20T04:03:42;6.20;;;3.67;;
20531;SDS011;10424;52.102;8.084;2022-12-20T04:06:09;5.50;;;3.58;;
20531;SDS011;10424;52.102;8.084;2022-12-20T04:08:36;4.78;;;3.28;;
20531;SDS011;10424;52.102;8.084;2022-12-20T04:11:04;7.05;;;3.70;;
20531;SDS011;10424;52.102;8.084;2022-12-20T04:13:45;7.75;;;3.50;;
20531;SDS011;10424;52.102;8.084;2022-12-20T04:16:13;5.55;;;3.25;;
20531;SDS011;10424;52.102;8.084;2022-12-20T04:18:41;5.47;;;3.60;;
20531;SDS011;10424;52.102;8.084;2022-12-20T04:21:08;6.40;;;3.28;;
20531;SDS011;10424;52.102;8.084;2022-12-20T04:23:37;5.93;;;3.90;;
20531;SDS011;10424;52.102;8.084;2022-12-20T04:26:05;6.35;;;3.50;;
20531;SDS011;10424;52.102;8.084;2022-12-20T04:28:32;8.40;;;3.75;;
20531;SDS011;10424;52.102;8.084;2022-12-20T04:31:01;6.10;;;3.75;;
20531;SDS011;10424;52.102;8.084;2022-12-20T04:33:29;8.55;;;5.05;;
20531;SDS011;10424;52.102;8.084;2022-12-20T04:35:57;5.82;;;3.92;;
20531;SDS011;10424;52.102;8.084;2022-12-20T04:38:24;5.10;;;4.00;;
20531;SDS011;10424;52.102;8.084;2022-12-20T04:40:52;8.35;;;4.38;;
20531;SDS011;10424;52.102;8.084;2022-12-20T04:43:20;6.00;;;3.60;;
20531;SDS011;10424;52.102;8.084;2022-12-20T04:45:48;5.93;;;3.85;;
20531;SDS011;10424;52.102;8.084;2022-12-20T04:48:17;5.88;;;3.90;;
20531;SDS011;10424;52.102;8.084;2022-12-20T04:50:46;5.80;;;3.60;;
20531;SDS011;10424;52.102;8.084;2022-12-20T04:53:14;6.25;;;4.20;;
20531;SDS011;10424;52.102;8.084;2022-12-20T04:55:59;6.60;;;3.70;;
20531;SDS011;10424;52.102;8.084;2022-12-20T04:58:26;7.68;;;4.25;;
20531;SDS011;10424;52.102;8.084;2022-12-20T05:00:53;7.00;;;3.85;;
20531;SDS011;10424;52.102;8.084;2022-12-20T05:03:22;6.00;;;3.90;;
20531;SDS011;10424;52.102;8.084;2022-12-20T05:05:50;5.13;;;3.72;;
20531;SDS011;10424;52.102;8.084;2022-12-20T05:08:17;6.53;;;4.30;;
20531;SDS011;10424;52.102;8.084;2022-12-20T05:10:44;8.40;;;4.30;;
20531;SDS011;10424;52.102;8.084;2022-12-20T05:13:11;5.28;;;4.00;;
20531;SDS011;10424;52.102;8.084;2022-12-20T05:15:39;6.57;;;4.30;;
20531;SDS011;10424;52.102;8.084;2022-12-20T05:18:06;6.60;;;4.30;;
20531;SDS011;10424;52.102;8.084;2022-12-20T05:20:35;6.57;;;4.20;;
20531;SDS011;10424;52.102;8.084;2022-12-20T05:23:02;6.72;;;4.03;;
20531;SDS011;10424;52.102;8.084;2022-12-20T05:25:48;6.95;;;4.35;;
20531;SDS011;10424;52.102;8.084;2022-12-20T05:28:30;6.30;;;4.50;;
20531;SDS011;10424;52.102;8.084;2022-12-20T05:30:57;10.07;;;4.95;;
20531;SDS011;10424;52.102;8.084;2022-12-20T05:33:24;8.25;;;4.97;;
20531;SDS011;10424;52.102;8.084;2022-12-20T05:35:53;9.57;;;5.22;;
20531;SDS011;10424;52.102;8.084;2022-12-20T05:38:21;7.38;;;5.18;;
20531;SDS011;10424;52.102;8.084;2022-12-20T05:40:49;10.68;;;5.43;;
20531;SDS011;10424;52.102;8.084;2022-12-20T05:43:17;8.88;;;5.38;;
20531;SDS011;10424;52.102;8.084;2022-12-20T05:45:45;9.13;;;5.40;;
20531;SDS011;10424;52.102;8.084;2022-12-20T05:48:12;8.63;;;5.18;;
20531;SDS011;10424;52.102;8.084;2022-12-20T05:50:39;10.13;;;5.55;;
20531;SDS011;10424;52.102;8.084;2022-12-20T05:53:09;10.02;;;4.90;;
20531;SDS011;10424;52.102;8.084;2022-12-20T05:55:37;8.50;;;5.10;;
20531;SDS011;10424;52.102;8.084;2022-12-20T05:58:04;8.02;;;5.45;;
20531;SDS011;10424;52.102;8.084;2022-12-20T06:00:32;9.40;;;4.97;;
20531;SDS011;10424;52.102;8.084;2022-12-20T06:02:59;9.77;;;5.55;;
20531;SDS011;10424;52.102;8.084;2022-12-20T06:05:27;8.48;;;5.15;;
20531;SDS011;10424;52.102;8.084;2022-12-20T06:07:54;7.00;;;5.05;;
20531;SDS011;10424;52.102;8.084;2022-12-20T06:10:23;8.27;;;5.35;;
20531;SDS011;10424;52.102;8.084;2022-12-20T06:12:50;7.80;;;4.90;;
20531;SDS011;10424;52.102;8.084;2022-12-20T06:15:17;7.43;;;5.38;;
20531;SDS011;10424;52.102;8.084;2022-12-20T06:17:45;9.30;;;5.20;;
20531;SDS011;10424;52.102;8.084;2022-12-20T06:20:12;8.55;;;4.57;;
20531;SDS011;10424;52.102;8.084;2022-12-20T06:22:39;7.63;;;5.10;;
20531;SDS011;10424;52.102;8.084;2022-12-20T06:25:07;7.97;;;5.13;;
20531;SDS011;10424;52.102;8.084;2022-12-20T06:27:37;9.05;;;5.25;;
20531;SDS011;10424;52.102;8.084;2022-12-20T06:30:05;8.07;;;5.00;;
20531;SDS011;10424;52.102;8.084;2022-12-20T06:32:33;8.00;;;5.40;;
20531;SDS011;10424;52.102;8.084;2022-12-20T06:35:01;9.60;;;5.00;;
20531;SDS011;10424;52.102;8.084;2022-12-20T06:37:28;8.43;;;5.50;;
20531;SDS011;10424;52.102;8.084;2022-12-20T06:39:56;7.93;;;5.40;;
20531;SDS011;10424;52.102;8.084;2022-12-20T06:42:24;8.15;;;5.00;;
20531;SDS011;10424;52.102;8.084;2022-12-20T06:44:53;8.90;;;4.57;;
20531;SDS011;10424;52.102;8.084;2022-12-20T06:47:20;8.27;;;5.00;;
20531;SDS011;10424;52.102;8.084;2022-12-20T06:49:48;10.05;;;4.30;;
20531;SDS011;10424;52.102;8.084;2022-12-20T06:52:15;6.00;;;4.57;;
20531;SDS011;10424;52.102;8.084;2022-12-20T06:54:42;8.70;;;4.18;;
20531;SDS011;10424;52.102;8.084;2022-12-20T06:57:10;7.20;;;5.05;;
20531;SDS011;10424;52.102;8.084;2022-12-20T06:59:37;6.40;;;4.53;;
20531;SDS011;10424;52.102;8.084;2022-12-20T07:02:08;7.65;;;4.72;;
20531;SDS011;10424;52.102;8.084;2022-12-20T07:04:35;6.57;;;4.30;;
20531;SDS011;10424;52.102;8.084;2022-12-20T07:07:03;6.60;;;4.60;;
20531;SDS011;10424;52.102;8.084;2022-12-20T07:09:30;6.85;;;4.10;;
20531;SDS011;10424;52.102;8.084;2022-12-20T07:11:58;7.57;;;5.10;;
20531;SDS011;10424;52.102;8.084;2022-12-20T07:14:25;8.07;;;4.90;;
20531;SDS011;10424;52.102;8.084;2022-12-20T07:16:52;9.25;;;5.95;;
20531;SDS011;10424;52.102;8.084;2022-12-20T07:19:21;8.57;;;5.28;;
20531;SDS011;10424;52.102;8.084;2022-12-20T07:21:49;8.07;;;5.40;;
20531;SDS011;10424;52.102;8.084;2022-12-20T07:24:16;9.10;;;5.45;;
20531;SDS011;10424;52.102;8.084;2022-12-20T07:26:43;10.25;;;5.70;;
20531;SDS011;10424;52.102;8.084;2022-12-20T07:29:11;10.95;;;6.43;;
20531;SDS011;10424;52.102;8.084;2022-12-20T07:31:38;10.23;;;6.20;;
20531;SDS011;10424;52.102;8.084;2022-12-20T07:34:06;10.60;;;6.80;;
20531;SDS011;10424;52.102;8.084;2022-12-20T07:36:34;12.32;;;6.60;;
20531;SDS011;10424;52.102;8.084;2022-12-20T07:39:02;11.00;;;6.22;;
20531;SDS011;10424;52.102;8.084;2022-12-20T07:41:29;11.40;;;6.68;;
20531;SDS011;10424;52.102;8.084;2022-12-20T07:43:57;12.05;;;6.65;;
20531;SDS011;10424;52.102;8.084;2022-12-20T07:46:25;14.57;;;7.00;;
20531;SDS011;10424;52.102;8.084;2022-12-20T07:48:52;12.23;;;7.15;;
20531;SDS011;10424;52.102;8.084;2022-12-20T07:51:20;12.40;;;6.80;;
20531;SDS011;10424;52.102;8.084;2022-12-20T07:53:51;11.05;;;6.90;;
20531;SDS011;10424;52.102;8.084;2022-12-20T07:56:20;14.00;;;7.47;;
20531;SDS011;10424;52.102;8.084;2022-12-20T07:58:48;11.30;;;6.68;;
20531;SDS011;10424;52.102;8.084;2022-12-20T08:01:18;11.20;;;6.90;;
20531;SDS011;10424;52.102;8.084;2022-12-20T08:03:46;12.48;;;7.05;;
20531;SDS011;10424;52.102;8.084;2022-12-20T08:06:14;11.07;;;7.22;;
20531;SDS011;10424;52.102;8.084;2022-12-20T08:08:44;12.45;;;7.50;;
20531;SDS011;10424;52.102;8.084;2022-12-20T08:11:13;13.40;;;7.32;;
20531;SDS011;10424;52.102;8.084;2022-12-20T08:13:41;13.18;;;6.95;;
20531;SDS011;10424;52.102;8.084;2022-12-20T08:16:08;13.27;;;7.30;;
20531;SDS011;10424;52.102;8.084;2022-12-20T08:18:36;12.20;;;7.47;;
20531;SDS011;10424;52.102;8.084;2022-12-20T08:21:04;14.00;;;6.95;;
20531;SDS011;10424;52.102;8.084;2022-12-20T08:23:31;13.80;;;7.70;;
20531;SDS011;10424;52.102;8.084;2022-12-20T08:25:59;10.07;;;7.20;;
20531;SDS011;10424;52.102;8.084;2022-12-20T08:28:28;11.13;;;6.95;;
20531;SDS011;10424;52.102;8.084;2022-12-20T08:30:59;10.20;;;6.88;;
20531;SDS011;10424;52.102;8.084;2022-12-20T08:33:26;10.95;;;7.47;;
20531;SDS011;10424;52.102;8.084;2022-12-20T08:35:57;10.00;;;6.82;;
20531;SDS011;10424;52.102;8.084;2022-12-20T08:38:25;13.43;;;7.13;;
20531;SDS011;10424;52.102;8.084;2022-12-20T08:40:53;13.50;;;7.32;;
20531;SDS011;10424;52.102;8.084;2022-12-20T08:43:21;12.48;;;7.03;;
20531;SDS011;10424;52.102;8.084;2022-12-20T08:45:53;12.45;;;6.85;;
20531;SDS011;10424;52.102;8.084;2022-12-20T08:48:21;13.00;;;7.43;;
20531;SDS011;10424;52.102;8.084;2022-12-20T08:50:52;13.38;;;6.88;;
20531;SDS011;10424;52.102;8.084;2022-12-20T08:53:20;18.30;;;7.55;;
20531;SDS011;10424;52.102;8.084;2022-12-20T08:55:48;14.60;;;7.40;;
20531;SDS011;10424;52.102;8.084;2022-12-20T08:58:15;11.40;;;7.47;;
20531;SDS011;10424;52.102;8.084;2022-12-20T09:00:42;9.80;;;6.80;;
20531;SDS011;10424;52.102;8.084;2022-12-20T09:03:12;10.35;;;6.55;;
20531;SDS011;10424;52.102;8.084;2022-12-20T09:05:43;11.57;;;6.13;;
20531;SDS011;10424;52.102;8.084;2022-12-20T09:08:11;11.55;;;6.40;;
20531;SDS011;10424;52.102;8.084;2022-12-20T09:10:39;9.50;;;6.78;;
20531;SDS011;10424;52.102;8.084;2022-12-20T09:13:06;9.88;;;6.65;;
20531;SDS011;10424;52.102;8.084;2022-12-20T09:15:34;9.70;;;6.22;;
20531;SDS011;10424;52.102;8.084;2022-12-20T09:18:01;10.38;;;5.38;;
20531;SDS011;10424;52.102;8.084;2022-12-20T09:20:31;9.27;;;5.30;;
20531;SDS011;10424;52.102;8.084;2022-12-20T09:22:58;10.25;;;5.93;;
20531;SDS011;10424;52.102;8.084;2022-12-20T09:25:26;8.98;;;5.30;;
20531;SDS011;10424;52.102;8.084;2022-12-20T09:27:53;8.45;;;4.68;;
20531;SDS011;10424;52.102;8.084;2022-12-20T09:30:21;8.65;;;5.03;;
20531;SDS011;10424;52.102;8.084;2022-12-20T09:32:49;8.13;;;4.50;;
20531;SDS011;10424;52.102;8.084;2022-12-20T09:35:16;7.97;;;4.70;;
20531;SDS011;10424;52.102;8.084;2022-12-20T09:37:47;6.72;;;4.50;;
20531;SDS011;10424;52.102;8.084;2022-12-20T09:40:16;7.32;;;4.60;;
20531;SDS011;10424;52.102;8.084;2022-12-20T09:42:45;6.03;;;4.28;;
20531;SDS011;10424;52.102;8.084;2022-12-20T09:45:19;7.93;;;4.63;;
20531;SDS011;10424;52.102;8.084;2022-12-20T09:47:48;6.18;;;4.05;;
20531;SDS011;10424;52.102;8.084;2022-12-20T09:50:16;7.78;;;4.43;;
20531;SDS011;10424;52.102;8.084;2022-12-20T09:52:53;9.07;;;4.40;;
20531;SDS011;10424;52.102;8.084;2022-12-20T09:55:23;6.72;;;4.40;;
20531;SDS011;10424;52.102;8.084;2022-12-20T09:57:56;9.07;;;4.55;;
20531;SDS011;10424;52.102;8.084;2022-12-20T10:00:25;7.72;;;4.55;;
20531;SDS011;10424;52.102;8.084;2022-12-20T10:02:54;10.98;;;4.38;;
20531;SDS011;10424;52.102;8.084;2022-12-20T10:05:24;7.88;;;4.25;;
20531;SDS011;10424;52.102;8.084;2022-12-20T10:07:57;7.65;;;4.20;;
20531;SDS011;10424;52.102;8.084;2022-12-20T10:10:43;8.20;;;4.88;;
20531;SDS011;10424;52.102;8.084;2022-12-20T10:13:19;8.48;;;4.35;;
20531;SDS011;10424;52.102;8.084;2022-12-20T10:15:50;6.60;;;4.07;;
20531;SDS011;10424;52.102;8.084;2022-12-20T10:18:31;5.85;;;3.75;;
20531;SDS011;10424;52.102;8.084;2022-12-20T10:21:01;9.60;;;3.95;;
20531;SDS011;10424;52.102;8.084;2022-12-20T10:23:35;8.80;;;4.05;;
20531;SDS011;10424;52.102;8.084;2022-12-20T10:26:04;7.15;;;4.35;;
20531;SDS011;10424;52.102;8.084;2022-12-20T10:28:34;5.47;;;3.15;;
20531;SDS011;10424;52.102;8.084;2022-12-20T10:31:03;5.78;;;3.22;;
20531;SDS011;10424;52.102;8.084;2022-12-20T10:33:31;4.38;;;3.33;;
20531;SDS011;10424;52.102;8.084;2022-12-20T10:38:44;6.15;;;3.40;;
20531;SDS011;10424;52.102;8.084;2022-12-20T10:41:13;4.97;;;2.90;;
20531;SDS011;10424;52.102;8.084;2022-12-20T10:43:43;4.18;;;2.78;;
20531;SDS011;10424;52.102;8.084;2022-12-20T10:46:10;4.03;;;2.80;;
20531;SDS011;10424;52.102;8.084;2022-12-20T10:48:39;5.20;;;3.50;;
20531;SDS011;10424;52.102;8.084;2022-12-20T10:51:12;4.95;;;3.25;;
20531;SDS011;10424;52.102;8.084;2022-12-20T10:53:50;4.95;;;2.40;;
20531;SDS011;10424;52.102;8.084;2022-12-20T10:56:18;5.15;;;2.88;;
20531;SDS011;10424;52.102;8.084;2022-12-20T10:58:51;5.35;;;2.85;;
20531;SDS011;10424;52.102;8.084;2022-12-20T11:01:19;6.18;;;3.33;;
20531;SDS011;10424;52.102;8.084;2022-12-20T11:03:54;7.57;;;3.05;;
20531;SDS011;10424;52.102;8.084;2022-12-20T11:06:22;5.20;;;3.33;;
20531;SDS011;10424;52.102;8.084;2022-12-20T11:08:51;6.68;;;3.30;;
20531;SDS011;10424;52.102;8.084;2022-12-20T11:11:19;5.13;;;3.33;;
20531;SDS011;10424;52.102;8.084;2022-12-20T11:13:47;5.18;;;3.15;;
20531;SDS011;10424;52.102;8.084;2022-12-20T11:16:25;5.80;;;3.17;;
20531;SDS011;10424;52.102;8.084;2022-12-20T11:18:55;5.55;;;3.50;;
20531;SDS011;10424;52.102;8.084;2022-12-20T11:21:27;7.03;;;2.95;;
20531;SDS011;10424;52.102;8.084;2022-12-20T11:23:59;5.63;;;3.00;;
20531;SDS011;10424;52.102;8.084;2022-12-20T11:26:32;6.18;;;3.15;;
20531;SDS011;10424;52.102;8.084;2022-12-20T11:29:05;9.07;;;3.60;;
20531;SDS011;10424;52.102;8.084;2022-12-20T11:31:38;4.30;;;3.15;;
20531;SDS011;10424;52.102;8.084;2022-12-20T11:34:11;4.93;;;3.25;;
20531;SDS011;10424;52.102;8.084;2022-12-20T11:36:55;5.57;;;3.67;;
20531;SDS011;10424;52.102;8.084;2022-12-20T11:39:29;5.55;;;3.28;;
20531;SDS011;10424;52.102;8.084;2022-12-20T11:41:58;5.10;;;3.40;;
20531;SDS011;10424;52.102;8.084;2022-12-20T11:44:31;6.57;;;2.97;;
20531;SDS011;10424;52.102;8.084;2022-12-20T11:47:20;4.35;;;3.00;;
20531;SDS011;10424;52.102;8.084;2022-12-20T11:50:03;5.05;;;3.20;;
20531;SDS011;10424;52.102;8.084;2022-12-20T11:52:34;8.00;;;3.00;;
20531;SDS011;10424;52.102;8.084;2022-12-20T11:55:07;5.82;;;3.00;;
20531;SDS011;10424;52.102;8.084;2022-12-20T11:57:42;5.28;;;3.45;;
20531;SDS011;10424;52.102;8.084;2022-12-20T12:00:11;3.80;;;2.78;;
20531;SDS011;10424;52.102;8.084;2022-12-20T12:02:41;5.03;;;3.40;;
20531;SDS011;10424;52.102;8.084;2022-12-20T12:05:13;6.18;;;3.47;;
20531;SDS011;10424;52.102;8.084;2022-12-20T12:07:42;7.00;;;3.58;;
20531;SDS011;10424;52.102;8.084;2022-12-20T12:10:14;5.82;;;3.60;;
20531;SDS011;10424;52.102;8.084;2022-12-20T12:12:42;5.97;;;3.30;;
20531;SDS011;10424;52.102;8.084;2022-12-20T12:15:15;4.72;;;3.10;;
20531;SDS011;10424;52.102;8.084;2022-12-20T12:17:45;4.57;;;2.83;;
20531;SDS011;10424;52.102;8.084;2022-12-20T12:20:19;5.90;;;3.30;;
20531;SDS011;10424;52.102;8.084;2022-12-20T12:22:48;5.40;;;3.08;;
20531;SDS011;10424;52.102;8.084;2022-12-20T12:25:20;5.55;;;3.17;;
20531;SDS011;10424;52.102;8.084;2022-12-20T12:27:48;5.60;;;3.38;;
20531;SDS011;10424;52.102;8.084;2022-12-20T12:30:15;5.20;;;3.08;;
20531;SDS011;10424;52.102;8.084;2022-12-20T12:32:44;6.10;;;3.20;;
20531;SDS011;10424;52.102;8.084;2022-12-20T12:35:18;5.47;;;3.33;;
20531;SDS011;10424;52.102;8.084;2022-12-20T12:37:53;6.20;;;2.80;;
20531;SDS011;10424;52.102;8.084;2022-12-20T12:40:38;4.13;;;3.17;;
20531;SDS011;10424;52.102;8.084;2022-12-20T12:45:56;5.03;;;3.00;;
20531;SDS011;10424;52.102;8.084;2022-12-20T12:48:26;4.72;;;2.75;;
20531;SDS011;10424;52.102;8.084;2022-12-20T12:50:56;3.97;;;2.92;;
20531;SDS011;10424;52.102;8.084;2022-12-20T12:53:25;6.00;;;3.15;;
20531;SDS011;10424;52.102;8.084;2022-12-20T12:55:57;7.47;;;2.78;;
20531;SDS011;10424;52.102;8.084;2022-12-20T13:01:03;5.40;;;2.65;;
20531;SDS011;10424;52.102;8.084;2022-12-20T13:03:43;4.03;;;2.17;;
20531;SDS011;10424;52.102;8.084;2022-12-20T13:09:09;5.07;;;2.60;;
20531;SDS011;10424;52.102;8.084;2022-12-20T13:11:39;5.53;;;2.67;;
20531;SDS011;10424;52.102;8.084;2022-12-20T13:14:10;4.70;;;2.90;;
20531;SDS011;10424;52.102;8.084;2022-12-20T13:16:40;4.63;;;2.95;;
20531;SDS011;10424;52.102;8.084;2022-12-20T13:19:11;4.25;;;2.40;;
20531;SDS011;10424;52.102;8.084;2022-12-20T13:21:42;4.88;;;2.88;;
20531;SDS011;10424;52.102;8.084;2022-12-20T13:29:59;5.88;;;2.83;;
20531;SDS011;10424;52.102;8.084;2022-12-20T13:35:28;6.05;;;3.22;;
20531;SDS011;10424;52.102;8.084;2022-12-20T13:37:56;4.85;;;2.47;;
20531;SDS011;10424;52.102;8.084;2022-12-20T13:40:29;4.57;;;3.08;;
20531;SDS011;10424;52.102;8.084;2022-12-20T13:42:58;4.72;;;3.10;;
20531;SDS011;10424;52.102;8.084;2022-12-20T13:45:30;6.93;;;3.17;;
20531;SDS011;10424;52.102;8.084;2022-12-20T13:47:58;5.18;;;3.50;;
20531;SDS011;10424;52.102;8.084;2022-12-20T13:50:29;5.65;;;3.30;;
20531;SDS011;10424;52.102;8.084;2022-12-20T13:52:59;5.13;;;3.30;;
20531;SDS011;10424;52.102;8.084;2022-12-20T13:55:32;6.55;;;3.10;;
20531;SDS011;10424;52.102;8.084;2022-12-20T13:58:03;5.30;;;3.40;;
20531;SDS011;10424;52.102;8.084;2022-12-20T14:00:32;5.75;;;3.45;;
20531;SDS011;10424;52.102;8.084;2022-12-20T14:03:00;5.57;;;3.60;;
20531;SDS011;10424;52.102;8.084;2022-12-20T14:05:31;5.07;;;3.40;;
20531;SDS011;10424;52.102;8.084;2022-12-20T14:07:59;7.55;;;3.90;;
20531;SDS011;10424;52.102;8.084;2022-12-20T14:10:27;8.40;;;3.90;;
20531;SDS011;10424;52.102;8.084;2022-12-20T14:12:55;4.57;;;2.92;;
20531;SDS011;10424;52.102;8.084;2022-12-20T14:15:24;6.05;;;3.30;;
20531;SDS011;10424;52.102;8.084;2022-12-20T14:17:53;17.67;;;10.27;;
20531;SDS011;10424;52.102;8.084;2022-12-20T14:20:22;8.80;;;5.15;;
20531;SDS011;10424;52.102;8.084;2022-12-20T14:22:52;5.32;;;3.40;;
20531;SDS011;10424;52.102;8.084;2022-12-20T14:25:23;11.50;;;7.15;;
20531;SDS011;10424;52.102;8.084;2022-12-20T14:27:53;10.80;;;7.22;;
20531;SDS011;10424;52.102;8.084;2022-12-20T14:30:25;9.18;;;4.30;;
20531;SDS011;10424;52.102;8.084;2022-12-20T14:32:54;8.93;;;4.68;;
20531;SDS011;10424;52.102;8.084;2022-12-20T14:35:22;6.25;;;4.20;;
20531;SDS011;10424;52.102;8.084;2022-12-20T14:37:53;7.20;;;4.32;;
20531;SDS011;10424;52.102;8.084;2022-12-20T14:40:21;6.55;;;3.97;;
20531;SDS011;10424;52.102;8.084;2022-12-20T14:42:49;6.07;;;3.22;;
20531;SDS011;10424;52.102;8.084;2022-12-20T14:45:17;6.32;;;4.00;;
20531;SDS011;10424;52.102;8.084;2022-12-20T14:47:49;6.88;;;3.95;;
20531;SDS011;10424;52.102;8.084;2022-12-20T14:50:19;5.28;;;3.38;;
20531;SDS011;10424;52.102;8.084;2022-12-20T14:52:48;5.50;;;2.50;;
20531;SDS011;10424;52.102;8.084;2022-12-20T14:55:15;5.10;;;3.05;;
20531;SDS011;10424;52.102;8.084;2022-12-20T14:57:44;7.28;;;3.05;;
20531;SDS011;10424;52.102;8.084;2022-12-20T15:00:14;3.90;;;2.42;;
20531;SDS011;10424;52.102;8.084;2022-12-20T15:02:45;5.88;;;2.70;;
20531;SDS011;10424;52.102;8.084;2022-12-20T15:08:09;4.20;;;2.83;;
20531;SDS011;10424;52.102;8.084;2022-12-20T15:10:37;5.22;;;3.60;;
20531;SDS011;10424;52.102;8.084;2022-12-20T15:13:09;7.32;;;3.35;;
20531;SDS011;10424;52.102;8.084;2022-12-20T15:15:37;6.68;;;3.72;;
20531;SDS011;10424;52.102;8.084;2022-12-20T15:18:07;6.97;;;4.18;;
20531;SDS011;10424;52.102;8.084;2022-12-20T15:20:36;7.68;;;4.55;;